West Union, Ohio
Current Conditions -  °F | °C
As of 12:55 PM on Wednesday 28 Jan 2015 (Local Time) from KFGX Reporting Station
Clear Clear  
Wind Chill: 28°   Ceiling: Unl
Heat Index: 28°   Visibility: 10mi
Dew Point: 17°   Wind: 3mph
Humidity: 63%   Direction: 260°W
Pressure: 30.36"   Gusts: NA
Location:  38.79°N, 83.55°W
Report Text: KFGX 281755Z AUTO 26003KT 10SM CLR M02/M08 A3036 RMK AO2 T10211083 11018 21115
Loading
Personal Weather Stations






























Interactive Weather Map New forecast layout! Learn more

10-Day Weather Forecast

Advertisements
Track Severe Weather on mobile